Time;durP1;ratioP1;P1;durP2;ratioP2;P2;SDS_P1;SDS_P2;PMS_P1;PMS_P2;Temp;Humidity;BMP_temperature;BMP_pressure;BME280_temperature;BME280_humidity;BME280_pressure;Samples;Min_cycle;Max_cycle;Signal;HPM_P1;HPM_P2
2022/07/21 00:01:08;;;;;;;15.68;10.85;;;24.50;82.10;;;;;;4956793;29;20182;-93
2022/07/21 00:03:34;;;;;;;13.20;9.70;;;24.40;79.10;;;;;;4957981;29;20212;-94
2022/07/21 00:06:00;;;;;;;18.38;9.27;;;24.30;76.20;;;;;;4957415;29;20564;-89
2022/07/21 00:08:30;;;;;;;16.35;9.23;;;24.20;75.70;;;;;;4973337;28;20185;-92
2022/07/21 00:10:56;;;;;;;14.05;8.45;;;24.20;74.80;;;;;;4958322;28;20499;-94
2022/07/21 00:13:22;;;;;;;9.55;7.35;;;24.20;74.10;;;;;;4956765;29;20184;-92
2022/07/21 00:15:48;;;;;;;11.32;7.32;;;24.10;73.50;;;;;;4958303;28;20219;-94
2022/07/21 00:18:15;;;;;;;8.52;7.10;;;24.10;73.20;;;;;;4958447;28;20252;-92
2022/07/21 00:20:40;;;;;;;10.68;7.10;;;24.10;72.60;;;;;;4957478;28;20188;-93
2022/07/21 00:23:06;;;;;;;9.40;6.78;;;24.00;72.70;;;;;;4957765;29;20185;-92
2022/07/21 00:25:32;;;;;;;12.07;7.15;;;24.00;72.40;;;;;;4957437;28;20204;-94
2022/07/21 00:27:58;;;;;;;11.50;6.57;;;23.90;72.40;;;;;;4955988;29;20177;-89
2022/07/21 00:30:33;;;;;;;8.75;6.50;;;23.90;72.80;;;;;;4956253;29;20212;-93
2022/07/21 00:32:59;;;;;;;7.65;6.30;;;23.90;72.80;;;;;;4955916;29;20196;-92
2022/07/21 00:35:24;;;;;;;13.13;6.57;;;23.80;73.50;;;;;;4957376;29;20605;-92
2022/07/21 00:37:51;;;;;;;9.77;6.60;;;23.80;73.40;;;;;;4957615;28;20185;-93
2022/07/21 00:40:26;;;;;;;10.82;6.55;;;23.80;73.80;;;;;;4956616;29;20197;-91
2022/07/21 00:42:51;;;;;;;10.68;5.85;;;23.70;74.30;;;;;;4955399;28;20232;-92
2022/07/21 00:45:17;;;;;;;9.90;6.10;;;23.70;74.80;;;;;;4958065;29;20221;-92
2022/07/21 00:47:43;;;;;;;13.00;6.45;;;23.60;74.70;;;;;;4960000;29;20556;-91
2022/07/21 00:50:12;;;;;;;10.05;5.80;;;23.60;75.00;;;;;;4960044;29;20182;-94
2022/07/21 00:52:38;;;;;;;7.55;6.00;;;23.50;75.70;;;;;;4960606;29;20192;-95
2022/07/21 00:55:06;;;;;;;8.93;5.65;;;23.50;76.00;;;;;;4961405;29;20523;-90
2022/07/21 00:57:32;;;;;;;12.55;6.13;;;23.50;76.20;;;;;;4960358;29;20182;-94
2022/07/21 01:00:04;;;;;;;7.97;6.15;;;23.50;76.80;;;;;;4959885;29;20181;-96
2022/07/21 01:02:36;;;;;;;8.52;5.93;;;23.50;76.70;;;;;;4960100;29;20195;-92
2022/07/21 01:05:12;;;;;;;8.48;5.93;;;23.50;76.70;;;;;;4959590;29;20213;-92
2022/07/21 01:07:39;;;;;;;10.38;5.97;;;23.50;77.40;;;;;;4959692;29;20180;-96
2022/07/21 01:10:06;;;;;;;8.88;6.15;;;23.40;77.20;;;;;;4959903;29;20185;-90
2022/07/21 01:12:32;;;;;;;7.70;6.03;;;23.40;77.40;;;;;;4960061;29;20208;-94
2022/07/21 01:14:58;;;;;;;9.90;5.55;;;23.40;77.80;;;;;;4959068;29;20186;-94
2022/07/21 01:17:23;;;;;;;8.48;5.70;;;23.30;78.10;;;;;;4959171;29;20277;-90
2022/07/21 01:19:51;;;;;;;8.55;5.50;;;23.40;78.20;;;;;;4958654;28;20177;-92
2022/07/21 01:22:17;;;;;;;7.10;5.63;;;23.40;78.40;;;;;;4960346;29;20620;-94
2022/07/21 01:24:42;;;;;;;7.35;5.40;;;23.40;79.00;;;;;;4960366;29;20232;-94
2022/07/21 01:27:08;;;;;;;10.63;5.93;;;23.30;79.30;;;;;;4959391;29;20549;-91
2022/07/21 01:29:36;;;;;;;6.78;5.20;;;23.30;80.70;;;;;;4959646;28;20616;-92
2022/07/21 01:32:03;;;;;;;8.75;5.32;;;23.30;80.50;;;;;;4960036;28;20172;-90
2022/07/21 01:34:29;;;;;;;12.52;5.88;;;23.30;81.30;;;;;;4958317;29;20177;-94
2022/07/21 01:36:55;;;;;;;8.65;5.00;;;23.20;81.30;;;;;;4958833;29;20248;-92
2022/07/21 01:42:05;;;;;;;11.50;5.32;;;23.10;82.20;;;;;;4960760;29;20318;-96
2022/07/21 01:44:31;;;;;;;9.77;5.60;;;23.10;83.10;;;;;;4960373;29;20209;-87
2022/07/21 01:46:56;;;;;;;11.82;5.22;;;23.10;83.80;;;;;;4960503;29;20192;-95
2022/07/21 01:49:26;;;;;;;6.40;4.65;;;23.10;83.60;;;;;;4960916;28;20188;-91
2022/07/21 01:51:52;;;;;;;6.97;5.07;;;23.10;84.40;;;;;;4960455;28;20174;-94
2022/07/21 01:54:18;;;;;;;9.70;5.20;;;23.10;84.80;;;;;;4958933;29;20280;-91
2022/07/21 01:56:44;;;;;;;10.98;5.65;;;23.00;85.00;;;;;;4958177;28;20241;-95
2022/07/21 01:59:12;;;;;;;8.27;5.28;;;23.00;85.10;;;;;;4960395;29;20189;-92
2022/07/21 02:01:38;;;;;;;7.30;4.38;;;22.90;85.60;;;;;;4959870;29;20258;-92
2022/07/21 02:04:04;;;;;;;9.60;4.85;;;22.90;85.40;;;;;;4961260;28;20985;-93
2022/07/21 02:06:30;;;;;;;6.95;4.63;;;22.80;85.30;;;;;;4959343;29;20528;-95
2022/07/21 02:08:56;;;;;;;9.05;4.32;;;22.80;85.10;;;;;;4960357;28;20601;-94
2022/07/21 02:11:23;;;;;;;6.60;4.05;;;22.80;84.90;;;;;;4959892;28;20189;-94
2022/07/21 02:13:49;;;;;;;8.25;4.88;;;22.80;85.00;;;;;;4958870;29;20185;-93
2022/07/21 02:16:15;;;;;;;6.07;3.75;;;22.80;85.00;;;;;;4959344;29;20228;-92
2022/07/21 02:18:41;;;;;;;9.40;4.30;;;22.80;85.30;;;;;;4959438;29;20525;-96
2022/07/21 02:21:07;;;;;;;6.72;4.50;;;22.80;85.60;;;;;;4958815;29;20295;-91
2022/07/21 02:23:34;;;;;;;9.13;4.68;;;22.80;86.00;;;;;;4958296;29;20201;-95
2022/07/21 02:26:00;;;;;;;6.03;4.63;;;22.80;86.00;;;;;;4959243;28;20181;-93
2022/07/21 02:28:26;;;;;;;6.28;4.35;;;22.80;86.60;;;;;;4958213;29;20173;-93
2022/07/21 02:30:53;;;;;;;6.20;4.40;;;22.80;86.70;;;;;;4957738;29;20216;-95
2022/07/21 02:33:20;;;;;;;9.90;4.93;;;22.70;86.90;;;;;;4957523;29;20173;-93
2022/07/21 02:35:46;;;;;;;7.53;4.80;;;22.70;86.90;;;;;;4957207;28;20177;-91
2022/07/21 02:38:12;;;;;;;6.10;4.43;;;22.70;87.30;;;;;;4958407;28;20212;-91
2022/07/21 02:40:47;;;;;;;8.23;4.40;;;22.70;87.40;;;;;;4957455;29;20276;-95
2022/07/21 02:43:13;;;;;;;7.72;4.57;;;22.70;87.30;;;;;;5447893;23;20610;-87
2022/07/21 02:45:41;;;;;;;9.68;4.70;;;22.80;87.90;;;;;;4971225;28;20238;-89
2022/07/21 02:48:09;;;;;;;8.07;4.82;;;22.70;87.90;;;;;;4971846;28;20198;-89
2022/07/21 02:50:37;;;;;;;9.02;4.72;;;22.70;89.40;;;;;;4972893;28;20315;-91
2022/07/21 02:53:09;;;;;;;8.05;5.00;;;22.70;89.10;;;;;;4973777;28;20176;-89
2022/07/21 02:55:36;;;;;;;9.85;5.05;;;22.70;89.30;;;;;;4972443;28;20184;-90
2022/07/21 02:58:11;;;;;;;8.38;4.80;;;22.70;89.50;;;;;;4972869;28;20274;-88
2022/07/21 03:00:43;;;;;;;7.88;5.05;;;22.60;89.60;;;;;;4972590;28;20176;-87
2022/07/21 03:03:09;;;;;;;6.72;4.68;;;22.70;89.60;;;;;;4972422;28;20183;-89
2022/07/21 03:05:36;;;;;;;10.25;4.85;;;22.70;89.60;;;;;;4972826;28;20184;-91
2022/07/21 03:08:03;;;;;;;9.15;4.85;;;22.70;90.00;;;;;;4971607;28;20195;-88
2022/07/21 03:10:30;;;;;;;7.20;4.95;;;22.70;90.00;;;;;;4973789;28;20517;-88
2022/07/21 03:12:55;;;;;;;5.88;4.43;;;22.70;90.00;;;;;;4974076;28;20181;-89
2022/07/21 03:15:21;;;;;;;7.05;4.22;;;22.70;90.00;;;;;;4991814;28;20242;-89
2022/07/21 03:17:47;;;;;;;9.20;4.60;;;22.70;89.90;;;;;;4992154;28;20211;-88
2022/07/21 03:20:13;;;;;;;9.30;4.20;;;22.60;90.00;;;;;;4991482;28;20211;-88
2022/07/21 03:22:39;;;;;;;6.20;4.20;;;22.70;89.90;;;;;;4991620;28;20184;-89
2022/07/21 03:25:05;;;;;;;8.40;4.60;;;22.60;89.40;;;;;;4991517;28;20258;-88
2022/07/21 03:27:35;;;;;;;9.73;4.28;;;22.60;89.50;;;;;;4991136;28;20290;-90
2022/07/21 03:30:07;;;;;;;7.40;4.18;;;22.60;89.50;;;;;;4991326;28;20218;-88
2022/07/21 03:32:34;;;;;;;6.95;4.07;;;22.50;89.50;;;;;;4991520;28;20168;-90
2022/07/21 03:35:00;;;;;;;9.25;4.10;;;22.50;89.60;;;;;;4991437;28;20172;-88
2022/07/21 03:37:26;;;;;;;4.90;3.85;;;22.40;89.60;;;;;;4979439;28;20238;-88
2022/07/21 03:39:52;;;;;;;7.03;3.85;;;22.40;89.90;;;;;;4972170;28;20180;-88
2022/07/21 03:42:18;;;;;;;8.52;4.13;;;22.40;90.00;;;;;;4972270;28;20558;-88
2022/07/21 03:44:43;;;;;;;5.70;3.75;;;22.40;90.00;;;;;;4971417;28;20283;-90
2022/07/21 03:47:09;;;;;;;5.68;3.85;;;22.50;89.70;;;;;;4972099;28;20715;-90
2022/07/21 03:49:35;;;;;;;7.20;3.75;;;22.50;89.90;;;;;;4971680;28;20790;-90
2022/07/21 03:52:00;;;;;;;6.80;3.70;;;22.50;90.00;;;;;;4971418;28;20747;-90
2022/07/21 03:54:26;;;;;;;5.50;3.58;;;22.50;89.80;;;;;;4972114;28;20201;-91
2022/07/21 03:56:52;;;;;;;24.83;4.35;;;22.50;89.90;;;;;;4971369;28;20208;-91
2022/07/21 03:59:18;;;;;;;6.30;3.85;;;22.60;90.00;;;;;;4973203;28;20189;-88
2022/07/21 04:01:44;;;;;;;7.40;4.40;;;22.60;89.80;;;;;;4971716;28;20291;-91
2022/07/21 04:04:10;;;;;;;6.88;4.00;;;22.60;89.80;;;;;;4971707;28;20203;-90
2022/07/21 04:06:36;;;;;;;10.05;3.95;;;22.70;89.80;;;;;;4971197;28;20266;-93
2022/07/21 04:09:02;;;;;;;5.25;3.67;;;22.70;89.70;;;;;;4973116;28;20169;-92
2022/07/21 04:11:30;;;;;;;6.15;3.97;;;22.80;89.70;;;;;;4971439;28;20625;-89
2022/07/21 04:13:56;;;;;;;5.85;3.78;;;22.80;90.10;;;;;;4971035;28;20640;-90
2022/07/21 04:16:22;;;;;;;5.75;4.20;;;22.70;89.90;;;;;;4972889;28;20196;-89
2022/07/21 04:18:48;;;;;;;7.20;3.90;;;22.80;89.80;;;;;;4973524;28;20251;-89
2022/07/21 04:21:14;;;;;;;6.85;4.38;;;22.80;90.10;;;;;;4975445;28;20208;-88
2022/07/21 04:23:39;;;;;;;6.53;3.90;;;22.80;90.20;;;;;;4975577;28;20579;-91
2022/07/21 04:26:05;;;;;;;6.43;3.97;;;22.80;90.10;;;;;;4975551;28;20204;-88
2022/07/21 04:28:31;;;;;;;7.40;4.00;;;22.70;90.20;;;;;;4975267;28;20607;-90
2022/07/21 04:30:57;;;;;;;9.05;3.83;;;22.70;90.20;;;;;;4975832;28;20189;-91
2022/07/21 04:33:23;;;;;;;10.00;4.50;;;22.80;90.30;;;;;;4975482;28;20169;-89
2022/07/21 04:35:49;;;;;;;8.75;4.65;;;22.80;90.60;;;;;;4974675;28;20620;-90
2022/07/21 04:38:14;;;;;;;8.98;4.63;;;22.70;91.10;;;;;;4975064;28;20184;-91
2022/07/21 04:40:40;;;;;;;7.47;4.65;;;22.60;90.80;;;;;;4975415;28;20247;-90
2022/07/21 04:43:06;;;;;;;8.50;4.80;;;22.60;91.30;;;;;;4975082;28;20235;-88
2022/07/21 04:45:32;;;;;;;7.18;4.68;;;22.60;92.20;;;;;;4976359;28;20695;-88
2022/07/21 04:47:58;;;;;;;7.00;4.72;;;22.60;92.20;;;;;;4975515;28;20672;-89
2022/07/21 04:50:26;;;;;;;8.68;5.05;;;22.50;92.90;;;;;;4976026;28;20165;-90
2022/07/21 04:52:53;;;;;;;7.03;4.75;;;22.40;93.00;;;;;;4975079;28;20204;-90
2022/07/21 04:55:21;;;;;;;8.60;5.13;;;22.40;93.40;;;;;;4976953;28;20641;-88
2022/07/21 04:57:50;;;;;;;7.75;4.80;;;22.30;94.30;;;;;;4975544;28;20291;-90
2022/07/21 05:00:19;;;;;;;8.25;5.47;;;22.30;94.60;;;;;;4975308;28;20204;-91
2022/07/21 05:02:46;;;;;;;10.73;5.65;;;22.30;94.90;;;;;;4975051;28;20172;-90
2022/07/21 05:05:12;;;;;;;7.93;5.50;;;22.20;95.10;;;;;;4974372;28;20215;-91
2022/07/21 05:07:38;;;;;;;10.07;5.15;;;22.20;95.00;;;;;;4974321;28;20200;-88
2022/07/21 05:10:06;;;;;;;7.40;5.32;;;22.20;95.70;;;;;;4973793;28;20181;-88
2022/07/21 05:12:33;;;;;;;6.95;5.35;;;22.20;96.90;;;;;;4973651;28;20177;-92
2022/07/21 05:14:58;;;;;;;8.80;5.50;;;22.10;97.50;;;;;;4991666;28;20276;-87
2022/07/21 05:17:24;;;;;;;7.75;5.20;;;21.90;98.40;;;;;;4992861;28;20295;-89
2022/07/21 05:19:50;;;;;;;10.90;5.93;;;21.80;99.30;;;;;;4994235;28;20172;-89
2022/07/21 05:22:17;;;;;;;10.10;5.97;;;21.80;99.20;;;;;;4973870;28;20547;-89
2022/07/21 05:24:43;;;;;;;11.18;5.30;;;21.70;99.90;;;;;;4965923;28;20209;-88
2022/07/21 05:27:09;;;;;;;8.50;5.57;;;21.80;99.10;;;;;;4970452;28;20204;-88
2022/07/21 05:29:36;;;;;;;8.80;5.45;;;21.80;99.50;;;;;;4954781;28;20672;-90
2022/07/21 05:32:02;;;;;;;14.15;5.85;;;21.80;99.50;;;;;;4954185;29;20177;-89
2022/07/21 05:34:28;;;;;;;10.10;6.20;;;21.90;99.70;;;;;;4953945;29;20172;-87
2022/07/21 05:36:54;;;;;;;8.70;6.00;;;21.90;99.90;;;;;;4963079;28;20683;-90
2022/07/21 05:39:20;;;;;;;9.52;6.32;;;21.90;99.90;;;;;;4973128;28;20188;-90
2022/07/21 05:41:47;;;;;;;9.90;6.15;;;21.80;99.90;;;;;;4971001;28;20281;-91
2022/07/21 05:44:13;;;;;;;11.68;5.88;;;21.70;99.90;;;;;;4973083;28;20294;-89
2022/07/21 05:46:38;;;;;;;9.75;5.65;;;21.70;99.90;;;;;;4972796;28;20287;-89
2022/07/21 05:49:04;;;;;;;9.43;5.55;;;21.70;99.90;;;;;;4973226;28;20548;-89
2022/07/21 05:51:30;;;;;;;9.68;6.20;;;21.70;99.90;;;;;;4964539;28;20180;-88
2022/07/21 05:53:56;;;;;;;8.05;6.13;;;21.70;99.90;;;;;;4969401;28;20189;-89
2022/07/21 05:56:21;;;;;;;10.30;6.35;;;21.60;99.90;;;;;;4983510;28;20626;-89
2022/07/21 05:58:47;;;;;;;9.25;5.97;;;21.60;99.90;;;;;;4988534;28;20577;-89
2022/07/21 06:01:13;;;;;;;7.90;5.90;;;21.60;99.90;;;;;;4992058;28;20195;-89
2022/07/21 06:03:44;;;;;;;19.63;6.60;;;21.60;99.90;;;;;;4991979;28;20286;-88
2022/07/21 06:06:12;;;;;;;13.13;6.35;;;21.60;99.90;;;;;;4982584;28;20332;-89
2022/07/21 06:08:40;;;;;;;11.63;6.20;;;21.60;99.90;;;;;;4974336;28;20296;-87
2022/07/21 06:11:16;;;;;;;9.05;6.22;;;21.60;99.90;;;;;;4975685;28;20161;-88
2022/07/21 06:13:51;;;;;;;8.77;6.10;;;21.70;99.90;;;;;;4980672;28;20212;-90
2022/07/21 06:16:21;;;;;;;10.73;6.45;;;21.70;99.90;;;;;;4974140;28;20219;-87
2022/07/21 06:18:52;;;;;;;12.60;6.72;;;21.80;99.90;;;;;;4974437;28;20270;-87
2022/07/21 06:21:27;;;;;;;9.57;6.38;;;21.80;99.90;;;;;;4973517;28;20180;-89
2022/07/21 06:24:01;;;;;;;10.57;6.47;;;21.90;99.90;;;;;;4974465;28;20718;-87
2022/07/21 06:26:27;;;;;;;11.65;6.03;;;22.00;99.90;;;;;;4971291;28;20699;-89
2022/07/21 06:28:53;;;;;;;10.10;6.50;;;22.00;99.90;;;;;;4953239;29;20189;-91
2022/07/21 06:31:19;;;;;;;10.75;6.15;;;22.10;99.90;;;;;;4953503;29;20177;-89
2022/07/21 06:33:44;;;;;;;11.38;6.65;;;22.10;99.90;;;;;;4952772;29;20187;-90
2022/07/21 06:36:10;;;;;;;14.15;6.70;;;22.20;99.90;;;;;;4952872;29;20307;-88
2022/07/21 06:38:36;;;;;;;9.15;6.22;;;22.40;99.90;;;;;;4954805;28;20177;-89
2022/07/21 06:41:02;;;;;;;12.25;6.80;;;22.50;99.90;;;;;;4988860;28;20215;-89
2022/07/21 06:43:28;;;;;;;10.93;6.20;;;22.50;99.90;;;;;;4984584;28;20240;-89
2022/07/21 06:45:54;;;;;;;9.35;5.80;;;22.70;99.90;;;;;;4971971;28;20184;-89
2022/07/21 06:48:21;;;;;;;10.95;5.72;;;22.70;99.90;;;;;;4971900;28;20594;-88
2022/07/21 06:50:47;;;;;;;7.90;5.03;;;22.80;99.90;;;;;;4971967;28;20181;-91
2022/07/21 06:53:13;;;;;;;7.72;4.85;;;22.80;99.90;;;;;;4971488;28;20191;-88
2022/07/21 06:55:40;;;;;;;13.90;5.25;;;22.90;99.90;;;;;;4981248;28;20176;-89
2022/07/21 06:58:17;;;;;;;8.77;4.78;;;22.90;99.90;;;;;;4992355;28;20167;-88
2022/07/21 07:00:44;;;;;;;8.90;4.70;;;23.00;99.90;;;;;;4966170;28;20177;-90
2022/07/21 07:03:10;;;;;;;9.50;5.13;;;23.10;99.90;;;;;;4953847;29;20236;-88
2022/07/21 07:05:37;;;;;;;6.63;4.15;;;23.10;99.90;;;;;;4953379;29;20712;-89
2022/07/21 07:08:03;;;;;;;6.72;4.10;;;23.20;99.90;;;;;;4953435;28;20209;-90
2022/07/21 07:10:29;;;;;;;13.13;4.60;;;23.30;99.90;;;;;;4974018;28;20667;-88
2022/07/21 07:12:55;;;;;;;6.95;4.40;;;23.50;99.90;;;;;;4973215;28;20264;-89
2022/07/21 07:15:23;;;;;;;8.48;4.20;;;23.60;99.90;;;;;;4989147;28;20195;-89
2022/07/21 07:17:49;;;;;;;6.68;3.78;;;23.60;99.90;;;;;;4972430;28;20327;-87
2022/07/21 07:20:15;;;;;;;6.57;3.92;;;23.70;99.50;;;;;;4972608;28;21535;-90
2022/07/21 07:22:41;;;;;;;5.70;3.78;;;23.80;99.40;;;;;;4972471;28;20180;-91
2022/07/21 07:25:07;;;;;;;6.00;3.80;;;23.70;99.30;;;;;;4971826;28;20200;-88
2022/07/21 07:27:33;;;;;;;6.88;3.80;;;23.70;98.70;;;;;;4990469;28;20218;-89
2022/07/21 07:29:59;;;;;;;6.80;4.15;;;23.80;98.80;;;;;;4985012;28;20184;-89
2022/07/21 07:32:25;;;;;;;6.78;3.45;;;24.00;99.00;;;;;;4972172;28;20548;-89
2022/07/21 07:34:50;;;;;;;6.22;3.58;;;24.10;98.30;;;;;;4972014;28;20184;-87
2022/07/21 07:37:16;;;;;;;7.07;3.40;;;24.10;97.20;;;;;;4972220;28;20212;-90
2022/07/21 07:39:42;;;;;;;7.25;3.40;;;24.00;96.70;;;;;;4972692;28;20192;-88
2022/07/21 07:42:08;;;;;;;6.30;4.10;;;23.90;98.00;;;;;;4971417;28;20172;-89
2022/07/21 07:44:34;;;;;;;6.25;3.67;;;23.80;98.10;;;;;;4956529;28;20240;-87
2022/07/21 07:47:03;;;;;;;6.32;3.83;;;23.70;98.30;;;;;;4952909;28;20205;-93
2022/07/21 07:49:30;;;;;;;7.03;3.80;;;23.90;98.80;;;;;;4986292;28;20196;-90
2022/07/21 07:51:57;;;;;;;5.43;2.97;;;24.20;97.70;;;;;;4981701;28;20197;-91
2022/07/21 07:54:22;;;;;;;6.22;3.05;;;24.40;97.10;;;;;;4971938;28;20172;-91
2022/07/21 07:56:48;;;;;;;10.07;3.47;;;24.70;96.40;;;;;;4972332;28;20200;-93
2022/07/21 07:59:14;;;;;;;5.60;3.45;;;24.80;96.20;;;;;;4972579;28;20179;-88
2022/07/21 08:01:41;;;;;;;5.88;3.65;;;24.90;96.60;;;;;;4972225;28;20577;-89
2022/07/21 08:04:07;;;;;;;10.18;3.90;;;25.10;95.40;;;;;;4971890;28;20206;-88
2022/07/21 08:06:33;;;;;;;9.73;3.28;;;25.10;94.90;;;;;;4971395;28;20620;-91
2022/07/21 08:08:59;;;;;;;7.13;3.22;;;24.90;95.00;;;;;;4974182;28;20184;-91
2022/07/21 08:11:25;;;;;;;5.63;2.78;;;24.60;94.90;;;;;;4991016;28;20639;-90
2022/07/21 08:13:51;;;;;;;7.82;3.80;;;24.40;95.30;;;;;;4994166;28;20176;-89
2022/07/21 08:16:17;;;;;;;7.00;3.72;;;24.40;96.00;;;;;;4992068;28;20219;-91
2022/07/21 08:18:43;;;;;;;6.38;3.50;;;24.40;96.50;;;;;;4988715;28;20180;-90
2022/07/21 08:21:09;;;;;;;4.00;3.20;;;24.60;97.00;;;;;;4972583;28;20173;-88
2022/07/21 08:23:35;;;;;;;5.97;3.60;;;24.70;96.30;;;;;;4972724;28;20247;-91
2022/07/21 08:26:00;;;;;;;7.93;3.42;;;25.00;96.00;;;;;;4974571;28;20200;-91
2022/07/21 08:28:26;;;;;;;4.57;3.28;;;25.10;95.60;;;;;;4973009;28;20202;-89
2022/07/21 08:30:52;;;;;;;4.68;3.30;;;25.30;96.40;;;;;;4972387;28;20178;-92
2022/07/21 08:33:17;;;;;;;6.82;3.20;;;25.40;94.80;;;;;;4972538;28;20177;-90
2022/07/21 08:35:43;;;;;;;7.82;3.22;;;25.50;93.90;;;;;;4973223;28;20688;-90
2022/07/21 08:38:11;;;;;;;4.95;3.45;;;25.60;93.80;;;;;;4973527;28;20521;-89
2022/07/21 08:40:43;;;;;;;6.63;3.30;;;25.70;94.10;;;;;;4971358;28;20169;-91
2022/07/21 08:43:12;;;;;;;9.18;3.90;;;25.80;93.90;;;;;;4972086;28;20302;-91
2022/07/21 08:45:39;;;;;;;7.85;3.30;;;25.90;93.30;;;;;;4971725;28;20195;-90
2022/07/21 08:48:06;;;;;;;6.32;3.22;;;25.90;92.70;;;;;;4973361;28;20161;-91
2022/07/21 08:50:35;;;;;;;5.38;3.45;;;25.90;93.30;;;;;;4972187;28;20220;-88
2022/07/21 08:53:02;;;;;;;5.72;4.05;;;26.00;93.70;;;;;;4972711;28;20300;-92
2022/07/21 08:55:33;;;;;;;6.25;3.53;;;26.10;93.60;;;;;;4971654;28;20180;-89
2022/07/21 08:58:01;;;;;;;7.30;3.38;;;25.90;93.40;;;;;;4971692;28;20211;-89
2022/07/21 09:00:28;;;;;;;5.32;3.15;;;25.80;93.30;;;;;;4973524;28;20169;-92
2022/07/21 09:03:21;;;;;;;6.07;3.33;;;25.80;93.60;;;;;;4972006;28;20553;-91
2022/07/21 09:06:12;;;;;;;5.78;3.40;;;25.90;93.70;;;;;;4973812;28;20212;-88
2022/07/21 09:08:41;;;;;;;6.63;3.15;;;25.90;94.00;;;;;;4976019;28;20176;-91
2022/07/21 09:11:14;;;;;;;5.00;2.83;;;26.00;93.70;;;;;;4975736;28;20204;-91
2022/07/21 09:13:42;;;;;;;5.32;3.33;;;26.00;93.50;;;;;;4976725;28;20700;-91
2022/07/21 09:16:08;;;;;;;4.60;3.40;;;26.10;94.50;;;;;;4983580;28;20212;-89
2022/07/21 09:18:34;;;;;;;5.10;3.53;;;26.20;93.70;;;;;;4976493;28;20250;-91
2022/07/21 09:21:01;;;;;;;6.40;3.67;;;26.50;93.80;;;;;;4977912;28;20685;-92
2022/07/21 09:23:28;;;;;;;6.10;3.13;;;26.80;93.60;;;;;;4976205;28;20188;-92
2022/07/21 09:25:58;;;;;;;7.80;3.60;;;26.90;93.60;;;;;;4975806;28;20176;-88
2022/07/21 09:28:29;;;;;;;3.67;3.25;;;26.90;93.50;;;;;;4975694;28;20185;-90
2022/07/21 09:31:03;;;;;;;4.72;3.38;;;26.80;93.50;;;;;;4975118;28;20212;-93
2022/07/21 09:33:34;;;;;;;8.73;3.65;;;26.90;94.30;;;;;;4975699;28;20176;-93
2022/07/21 09:36:20;;;;;;;7.03;3.50;;;27.00;94.00;;;;;;4975239;28;20197;-88
2022/07/21 09:38:58;;;;;;;4.63;3.28;;;27.20;93.20;;;;;;4974779;28;20235;-90
2022/07/21 09:41:25;;;;;;;5.40;3.20;;;27.20;92.50;;;;;;4975096;28;20251;-93
2022/07/21 09:43:56;;;;;;;4.95;3.28;;;27.30;93.00;;;;;;4973884;28;20231;-91
2022/07/21 09:46:28;;;;;;;4.60;2.90;;;27.30;92.40;;;;;;4974626;28;20694;-91
2022/07/21 09:49:01;;;;;;;4.80;3.00;;;27.20;92.80;;;;;;4975752;28;20203;-90
2022/07/21 09:51:41;;;;;;;4.07;3.13;;;26.90;92.90;;;;;;4974612;28;20169;-90
2022/07/21 09:54:08;;;;;;;3.35;2.80;;;26.70;93.20;;;;;;4973866;28;20188;-90
2022/07/21 09:56:39;;;;;;;3.28;2.60;;;26.50;93.10;;;;;;4974411;28;20743;-91
2022/07/21 09:59:08;;;;;;;3.67;2.80;;;26.30;93.30;;;;;;4974992;28;20177;-88
2022/07/21 10:01:35;;;;;;;3.83;3.20;;;26.10;93.70;;;;;;4974051;28;20176;-90
2022/07/21 10:04:02;;;;;;;2.92;2.60;;;26.00;93.50;;;;;;4974687;28;20208;-89
2022/07/21 10:06:38;;;;;;;2.40;2.20;;;25.90;93.80;;;;;;4974177;28;20259;-91
2022/07/21 10:09:09;;;;;;;7.80;2.67;;;25.70;94.10;;;;;;4974160;28;20175;-89
2022/07/21 10:11:35;;;;;;;2.72;1.92;;;25.60;94.60;;;;;;4974499;28;20169;-89
2022/07/21 10:14:02;;;;;;;2.90;2.22;;;25.60;94.70;;;;;;4974480;28;20187;-91
2022/07/21 10:16:28;;;;;;;3.72;2.25;;;25.50;95.00;;;;;;4974101;28;20227;-91
2022/07/21 10:19:17;;;;;;;3.63;2.30;;;25.60;94.80;;;;;;4974280;28;20272;-89
2022/07/21 10:22:23;;;;;;;2.80;1.98;;;25.60;94.80;;;;;;4979748;28;20184;-89
2022/07/21 10:24:49;;;;;;;2.38;2.17;;;25.70;94.40;;;;;;4969814;28;20874;-91
2022/07/21 10:27:15;;;;;;;2.50;1.90;;;25.70;94.30;;;;;;4973608;28;20715;-90
2022/07/21 10:29:48;;;;;;;1.90;1.55;;;25.60;94.20;;;;;;4973790;28;20196;-91
2022/07/21 10:32:18;;;;;;;4.63;1.70;;;25.60;94.30;;;;;;4974042;28;20600;-91
2022/07/21 10:34:45;;;;;;;1.92;1.60;;;25.60;95.10;;;;;;4973684;28;20575;-90
2022/07/21 10:37:31;;;;;;;1.90;1.70;;;25.60;94.90;;;;;;4973907;28;20295;-90
2022/07/21 10:39:57;;;;;;;4.05;1.60;;;25.60;95.10;;;;;;4974976;28;20263;-90
2022/07/21 10:42:23;;;;;;;2.15;1.83;;;25.60;95.00;;;;;;4975448;28;20177;-92
2022/07/21 10:44:49;;;;;;;1.55;1.45;;;25.70;95.50;;;;;;4990479;28;20981;-93
2022/07/21 10:47:25;;;;;;;1.92;1.80;;;26.10;95.80;;;;;;4993098;28;20199;-90
2022/07/21 10:49:57;;;;;;;1.98;1.30;;;26.50;94.60;;;;;;4993833;28;20230;-91
2022/07/21 10:52:35;;;;;;;1.27;1.02;;;26.90;93.80;;;;;;4990897;28;20185;-90
2022/07/21 10:55:10;;;;;;;1.27;1.00;;;27.00;92.90;;;;;;4973641;28;20264;-92
2022/07/21 10:57:42;;;;;;;1.20;1.00;;;26.90;93.20;;;;;;4984752;28;20667;-90
2022/07/21 11:00:23;;;;;;;1.23;0.95;;;27.00;93.00;;;;;;4973811;28;20181;-90
2022/07/21 11:02:53;;;;;;;1.98;0.80;;;27.10;92.10;;;;;;4973437;28;20268;-90
2022/07/21 11:05:19;;;;;;;1.00;0.70;;;27.40;92.30;;;;;;4973238;28;20723;-92
2022/07/21 11:08:11;;;;;;;1.65;0.82;;;27.60;90.90;;;;;;4973888;28;20188;-90
2022/07/21 11:10:43;;;;;;;1.10;0.73;;;27.80;91.40;;;;;;4986577;28;20536;-91
2022/07/21 11:13:09;;;;;;;1.38;0.90;;;28.00;90.90;;;;;;4989457;28;20263;-92
2022/07/21 11:15:59;;;;;;;1.10;1.00;;;28.00;90.30;;;;;;4973627;28;20173;-90
2022/07/21 11:18:28;;;;;;;1.25;1.15;;;27.90;90.80;;;;;;4986533;28;20194;-93
2022/07/21 11:21:11;;;;;;;1.88;1.40;;;27.70;91.00;;;;;;4992791;28;20168;-90
2022/07/21 11:23:49;;;;;;;1.42;1.30;;;27.70;91.10;;;;;;4974711;28;20168;-92
2022/07/21 11:26:17;;;;;;;1.55;1.45;;;28.10;90.90;;;;;;4985177;28;20671;-90
2022/07/21 11:28:44;;;;;;;2.15;1.80;;;28.30;89.70;;;;;;4991876;28;20188;-90
2022/07/21 11:31:16;;;;;;;1.83;1.40;;;28.20;89.70;;;;;;4992741;28;20225;-90
2022/07/21 11:33:45;;;;;;;1.63;1.38;;;28.10;90.20;;;;;;4992632;28;20580;-92
2022/07/21 11:36:25;;;;;;;1.67;1.58;;;28.10;90.30;;;;;;4992332;28;20207;-91
2022/07/21 11:39:04;;;;;;;5.22;1.70;;;28.30;89.90;;;;;;4992993;28;20514;-90
2022/07/21 11:41:31;;;;;;;1.90;1.45;;;28.40;90.40;;;;;;4992137;28;20187;-90
2022/07/21 11:43:58;;;;;;;2.70;1.88;;;28.40;89.10;;;;;;4972756;28;20254;-89
2022/07/21 11:46:24;;;;;;;2.03;1.80;;;28.20;89.00;;;;;;4972614;28;20240;-90
2022/07/21 11:49:01;;;;;;;2.42;2.10;;;28.20;88.20;;;;;;4972879;28;20232;-89
2022/07/21 11:51:27;;;;;;;2.10;1.90;;;28.20;88.30;;;;;;4972980;28;20208;-92
2022/07/21 11:53:53;;;;;;;2.78;2.20;;;28.10;88.40;;;;;;4974082;28;20282;-89
2022/07/21 11:56:19;;;;;;;6.18;2.42;;;28.20;88.30;;;;;;4973734;28;20212;-90
2022/07/21 11:58:46;;;;;;;2.50;2.22;;;28.00;87.50;;;;;;4972746;28;20196;-92
2022/07/21 12:01:12;;;;;;;4.50;2.42;;;28.00;86.40;;;;;;4972105;28;20181;-89
2022/07/21 12:03:49;;;;;;;3.03;2.72;;;28.10;86.80;;;;;;4972547;28;20200;-90
2022/07/21 12:06:15;;;;;;;3.40;2.63;;;28.10;88.10;;;;;;4973883;28;20192;-91
2022/07/21 12:08:42;;;;;;;3.40;2.60;;;28.30;88.30;;;;;;4972966;28;20180;-90
2022/07/21 12:11:10;;;;;;;3.60;2.85;;;28.50;86.40;;;;;;4973130;28;20189;-90
2022/07/21 12:13:58;;;;;;;3.25;2.95;;;28.50;85.60;;;;;;4972750;28;20561;-91
2022/07/21 12:16:24;;;;;;;3.75;2.90;;;28.50;85.70;;;;;;4985812;28;20294;-93
2022/07/21 12:19:15;;;;;;;3.67;2.90;;;28.80;85.50;;;;;;4992920;28;20260;-92
2022/07/21 12:21:47;;;;;;;3.22;2.92;;;28.90;85.10;;;;;;4974795;28;20185;-89
2022/07/21 12:24:14;;;;;;;3.22;2.63;;;29.10;84.10;;;;;;4972142;28;20295;-92
2022/07/21 12:26:40;;;;;;;3.20;2.90;;;29.30;84.20;;;;;;4972351;28;20248;-89
2022/07/21 12:29:06;;;;;;;3.35;2.70;;;29.00;82.90;;;;;;4972623;28;20191;-90
2022/07/21 12:31:35;;;;;;;4.25;3.10;;;28.70;84.30;;;;;;4969630;28;20275;-90
2022/07/21 12:34:12;;;;;;;3.45;3.15;;;28.30;84.60;;;;;;4973404;28;20580;-89
2022/07/21 12:36:38;;;;;;;3.10;2.75;;;28.40;86.20;;;;;;4972129;28;20230;-91
2022/07/21 12:39:55;;;;;;;3.40;3.10;;;28.50;85.50;;;;;;4972313;28;20181;-91
2022/07/21 12:42:01;;;;;;;3.58;2.97;;;28.20;84.10;;;;;;4996352;28;20183;-89
2022/07/21 12:44:29;;;;;;;2.95;2.60;;;28.40;85.70;;;;;;4980503;28;20240;-92
2022/07/21 12:46:55;;;;;;;5.43;2.95;;;28.60;85.70;;;;;;4975589;28;20196;-90
2022/07/21 12:49:21;;;;;;;3.45;2.70;;;29.00;84.80;;;;;;4975695;28;20184;-91
2022/07/21 12:51:57;;;;;;;2.58;2.38;;;29.20;82.90;;;;;;4975413;28;20177;-90
2022/07/21 12:54:23;;;;;;;3.90;2.85;;;29.40;81.60;;;;;;4975520;28;20644;-90